Time;durP1;ratioP1;P1;durP2;ratioP2;P2;SDS_P1;SDS_P2;PMS_P1;PMS_P2;Temp;Humidity;BMP_temperature;BMP_pressure;BME280_temperature;BME280_humidity;BME280_pressure;Samples;Min_cycle;Max_cycle;Signal;HPM_P1;HPM_P2
2022/06/03 00:02:36;;;;;;;1.63;0.68;;;13.90;74.20;;;;;;5046027;28;20402;-76
2022/06/03 00:05:26;;;;;;;0.82;0.60;;;13.90;75.60;;;;;;5041509;28;20046;-76
2022/06/03 00:08:10;;;;;;;1.58;0.98;;;14.00;75.40;;;;;;5035234;28;20486;-75
2022/06/03 00:11:01;;;;;;;0.77;0.50;;;13.90;75.80;;;;;;5037402;28;20037;-75
2022/06/03 00:13:47;;;;;;;;;;;13.90;76.50;;;;;;5035987;28;20045;-76
2022/06/03 00:16:28;;;;;;;1.45;1.13;;;13.90;77.00;;;;;;5035602;28;19913;-75
2022/06/03 00:19:36;;;;;;;0.68;0.68;;;13.80;77.70;;;;;;5033408;28;20045;-75
2022/06/03 00:22:33;;;;;;;2.00;1.10;;;13.90;78.20;;;;;;5034633;28;20040;-73
2022/06/03 00:25:18;;;;;;;2.95;0.63;;;14.00;78.50;;;;;;5033304;28;20376;-74
2022/06/03 00:28:18;;;;;;;0.57;0.57;;;14.00;79.00;;;;;;5048444;28;20033;-74
2022/06/03 00:31:11;;;;;;;0.65;0.65;;;13.90;79.80;;;;;;5034234;28;20030;-74
2022/06/03 00:34:14;;;;;;;1.55;1.00;;;13.90;81.10;;;;;;5041685;28;20048;-77
2022/06/03 00:36:43;;;;;;;0.30;0.30;;;13.70;82.20;;;;;;5041369;28;20036;-74
2022/06/03 00:39:10;;;;;;;0.63;0.50;;;13.70;83.20;;;;;;5046262;28;20033;-74
2022/06/03 00:41:55;;;;;;;0.65;0.65;;;13.70;84.30;;;;;;5034310;28;20292;-77
2022/06/03 00:44:52;;;;;;;2.45;1.02;;;13.60;84.70;;;;;;5053347;28;20048;-76
2022/06/03 00:47:43;;;;;;;1.88;0.60;;;13.60;85.80;;;;;;5036792;28;20414;-76
2022/06/03 00:50:21;;;;;;;0.50;0.40;;;13.50;86.60;;;;;;5039311;28;20378;-76
2022/06/03 00:53:03;;;;;;;0.85;0.68;;;13.50;87.20;;;;;;5047721;28;20033;-76
2022/06/03 00:55:37;;;;;;;1.55;0.90;;;13.50;87.70;;;;;;5034361;28;20486;-77
2022/06/03 00:58:29;;;;;;;0.82;0.77;;;13.50;88.10;;;;;;5033580;28;20064;-75
2022/06/03 01:01:15;;;;;;;1.15;0.73;;;13.50;88.30;;;;;;5033849;28;20057;-77
2022/06/03 01:04:11;;;;;;;1.10;0.75;;;13.40;88.60;;;;;;5033970;28;20037;-77
2022/06/03 01:06:53;;;;;;;0.50;0.50;;;13.40;88.60;;;;;;5051287;28;20060;-77
2022/06/03 01:09:47;;;;;;;0.93;0.50;;;13.40;88.70;;;;;;5035632;28;20041;-74
2022/06/03 01:12:46;;;;;;;1.20;0.70;;;13.40;88.50;;;;;;5033516;28;20410;-75
2022/06/03 01:15:50;;;;;;;0.73;0.40;;;13.40;89.30;;;;;;5034399;28;20041;-75
2022/06/03 01:18:27;;;;;;;0.80;0.68;;;13.40;89.10;;;;;;5036974;28;20240;-74
2022/06/03 01:21:15;;;;;;;0.65;0.55;;;13.30;89.50;;;;;;5051863;28;20033;-75
2022/06/03 01:24:09;;;;;;;4.13;0.82;;;13.20;90.20;;;;;;5053234;28;20512;-74
2022/06/03 01:26:38;;;;;;;1.33;0.85;;;13.10;90.50;;;;;;5032581;28;20052;-75
2022/06/03 01:29:31;;;;;;;1.23;0.70;;;13.10;90.40;;;;;;5043351;28;20037;-74
2022/06/03 01:32:17;;;;;;;1.92;0.77;;;13.00;90.60;;;;;;5033437;28;20379;-74
2022/06/03 01:34:58;;;;;;;1.98;0.82;;;12.90;90.60;;;;;;5033035;28;20458;-75
2022/06/03 01:37:34;;;;;;;1.30;0.90;;;12.90;90.70;;;;;;5033212;28;20033;-74
2022/06/03 01:40:24;;;;;;;1.25;0.82;;;12.90;90.70;;;;;;5033159;28;20029;-74
2022/06/03 01:42:59;;;;;;;1.40;0.75;;;12.80;90.80;;;;;;5033291;28;20045;-75
2022/06/03 01:45:55;;;;;;;1.17;0.77;;;12.80;90.70;;;;;;5041949;28;20037;-74
2022/06/03 01:48:43;;;;;;;1.27;0.88;;;12.70;90.60;;;;;;5032329;28;20049;-75
2022/06/03 01:51:26;;;;;;;1.10;0.68;;;12.80;90.40;;;;;;5031562;28;20379;-74
2022/06/03 01:54:20;;;;;;;1.45;0.52;;;12.80;90.30;;;;;;5032083;28;20032;-74
2022/06/03 01:56:58;;;;;;;0.80;0.65;;;12.80;90.00;;;;;;5032616;28;20109;-74
2022/06/03 01:59:48;;;;;;;1.95;1.02;;;12.80;90.10;;;;;;5046071;28;20056;-74
2022/06/03 02:02:26;;;;;;;0.70;0.40;;;12.70;90.30;;;;;;5042079;28;20029;-74
2022/06/03 02:05:01;;;;;;;0.50;0.50;;;12.70;90.20;;;;;;5033894;28;20034;-74
2022/06/03 02:07:52;;;;;;;0.70;0.60;;;12.70;90.40;;;;;;5032499;28;20037;-74
2022/06/03 02:10:36;;;;;;;;;;;12.60;90.20;;;;;;5032879;28;20033;-74
2022/06/03 02:13:21;;;;;;;1.08;0.68;;;12.60;90.40;;;;;;5036715;28;19921;-74
2022/06/03 02:16:11;;;;;;;0.65;0.65;;;12.60;90.40;;;;;;5032779;28;20040;-74
2022/06/03 02:19:09;;;;;;;0.50;0.50;;;12.60;90.50;;;;;;5048829;28;20041;-74
2022/06/03 02:22:13;;;;;;;1.02;0.90;;;12.50;90.60;;;;;;5043655;28;20053;-74
2022/06/03 02:24:54;;;;;;;0.95;0.75;;;12.50;90.60;;;;;;5046903;28;20033;-74
2022/06/03 02:27:20;;;;;;;;;;;12.40;90.70;;;;;;5046571;28;20044;-74
2022/06/03 02:30:25;;;;;;;0.50;0.50;;;12.40;90.80;;;;;;5051899;28;19909;-74
2022/06/03 02:33:10;;;;;;;1.45;1.05;;;12.40;90.90;;;;;;5032420;28;20056;-73
2022/06/03 02:36:14;;;;;;;0.73;0.73;;;12.40;90.90;;;;;;5031309;28;20462;-75
2022/06/03 02:38:56;;;;;;;1.67;0.88;;;12.30;90.90;;;;;;5038559;28;20386;-76
2022/06/03 02:41:26;;;;;;;2.10;0.82;;;12.30;90.90;;;;;;5037764;28;20038;-75
2022/06/03 02:44:10;;;;;;;1.02;0.88;;;12.30;90.90;;;;;;5044268;28;20632;-74
2022/06/03 02:46:39;;;;;;;1.40;0.82;;;12.30;91.00;;;;;;5042570;28;20025;-74
2022/06/03 02:49:25;;;;;;;0.88;0.70;;;12.20;91.10;;;;;;5031367;28;20044;-74
2022/06/03 02:52:11;;;;;;;1.42;1.25;;;12.20;91.70;;;;;;5032341;28;20379;-74
2022/06/03 02:55:02;;;;;;;1.45;0.80;;;12.20;91.80;;;;;;5035493;28;20041;-74
2022/06/03 02:57:57;;;;;;;1.27;0.70;;;12.10;91.50;;;;;;5036244;28;20049;-76
2022/06/03 03:00:26;;;;;;;0.50;0.50;;;12.10;91.60;;;;;;5036155;28;20038;-76
2022/06/03 03:03:19;;;;;;;2.33;1.10;;;12.10;92.00;;;;;;5036196;28;20033;-74
2022/06/03 03:06:09;;;;;;;0.93;0.85;;;12.10;92.60;;;;;;5036245;28;20030;-76
2022/06/03 03:09:13;;;;;;;0.80;0.70;;;12.10;92.50;;;;;;5034977;28;20045;-77
2022/06/03 03:12:13;;;;;;;1.20;0.70;;;12.10;92.70;;;;;;5043961;28;20049;-76
2022/06/03 03:14:59;;;;;;;1.40;1.00;;;12.10;92.10;;;;;;5052077;28;20042;-76
2022/06/03 03:17:42;;;;;;;1.33;0.70;;;12.00;92.30;;;;;;5036805;28;20037;-76
2022/06/03 03:20:31;;;;;;;2.38;1.05;;;12.00;92.80;;;;;;5038867;28;20044;-75
2022/06/03 03:23:19;;;;;;;0.75;0.65;;;12.00;92.80;;;;;;5044369;28;20033;-76
2022/06/03 03:26:10;;;;;;;0.88;0.85;;;12.00;92.60;;;;;;5039783;28;20041;-75
2022/06/03 03:29:12;;;;;;;0.55;0.50;;;11.90;92.60;;;;;;5042288;28;20037;-76
2022/06/03 03:32:15;;;;;;;1.10;0.73;;;11.80;92.90;;;;;;5053483;28;20037;-77
2022/06/03 03:34:50;;;;;;;1.85;1.08;;;11.80;93.20;;;;;;5036650;28;20044;-76
2022/06/03 03:37:35;;;;;;;3.03;0.70;;;11.80;93.00;;;;;;5051445;28;20044;-76
2022/06/03 03:40:24;;;;;;;0.75;0.70;;;11.80;93.00;;;;;;5035486;28;20029;-76
2022/06/03 03:43:05;;;;;;;0.80;0.60;;;11.90;93.30;;;;;;5037128;28;20048;-76
2022/06/03 03:45:55;;;;;;;1.40;0.80;;;11.90;93.40;;;;;;5045085;28;20044;-76
2022/06/03 03:48:58;;;;;;;1.00;0.73;;;12.00;92.90;;;;;;5035613;28;20231;-76
2022/06/03 03:52:12;;;;;;;0.80;0.73;;;12.00;92.50;;;;;;5052171;28;20042;-76
2022/06/03 03:54:44;;;;;;;2.65;1.02;;;12.10;92.50;;;;;;5035566;28;20033;-74
2022/06/03 03:57:39;;;;;;;0.70;0.60;;;12.20;92.60;;;;;;5035336;28;20041;-77
2022/06/03 04:00:15;;;;;;;1.77;0.80;;;12.30;91.90;;;;;;5035551;28;20022;-77
2022/06/03 04:03:00;;;;;;;1.65;0.82;;;12.30;91.70;;;;;;5037742;28;20038;-76
2022/06/03 04:05:41;;;;;;;0.95;0.85;;;12.50;92.20;;;;;;5035280;28;20032;-75
2022/06/03 04:08:32;;;;;;;1.25;0.85;;;12.60;91.40;;;;;;5034673;28;20045;-75
2022/06/03 04:11:26;;;;;;;0.90;0.60;;;12.60;91.00;;;;;;5035414;28;20034;-75
2022/06/03 04:14:24;;;;;;;1.08;0.80;;;12.70;91.00;;;;;;5045001;28;20057;-75
2022/06/03 04:17:11;;;;;;;1.17;0.85;;;12.80;91.00;;;;;;5035354;28;20029;-75
2022/06/03 04:19:56;;;;;;;0.88;0.80;;;13.00;90.60;;;;;;5034942;28;20040;-75
2022/06/03 04:22:22;;;;;;;0.98;0.88;;;13.30;89.50;;;;;;5050863;28;20047;-75
2022/06/03 04:25:07;;;;;;;0.70;0.55;;;14.00;87.00;;;;;;5033469;28;20029;-76
2022/06/03 04:27:40;;;;;;;1.70;0.93;;;14.40;83.90;;;;;;5034551;28;20038;-75
2022/06/03 04:30:51;;;;;;;0.93;0.77;;;14.50;82.00;;;;;;5033339;28;20037;-75
2022/06/03 04:33:50;;;;;;;0.93;0.57;;;14.50;81.90;;;;;;5033828;28;20037;-75
2022/06/03 04:36:28;;;;;;;1.23;0.90;;;15.10;79.10;;;;;;5043070;28;20044;-75
2022/06/03 04:39:33;;;;;;;0.52;0.52;;;15.10;77.50;;;;;;5042517;28;20036;-76
2022/06/03 04:42:17;;;;;;;2.35;0.95;;;15.30;77.70;;;;;;5045803;28;20045;-75
2022/06/03 04:45:08;;;;;;;1.80;0.88;;;15.40;76.90;;;;;;5034455;28;20042;-75
2022/06/03 04:47:55;;;;;;;0.90;0.70;;;14.60;79.10;;;;;;5044165;28;20052;-75
2022/06/03 04:50:28;;;;;;;1.23;0.90;;;14.30;83.40;;;;;;5053460;28;20025;-75
2022/06/03 04:53:28;;;;;;;3.88;0.70;;;14.40;85.00;;;;;;5034537;28;20041;-76
2022/06/03 04:56:25;;;;;;;0.60;0.60;;;14.40;82.90;;;;;;5036611;28;20036;-75
2022/06/03 04:59:29;;;;;;;0.80;0.70;;;14.20;84.20;;;;;;5048409;28;20291;-75
2022/06/03 05:02:20;;;;;;;1.33;0.90;;;14.00;86.50;;;;;;5034452;28;20383;-75
2022/06/03 05:04:52;;;;;;;;;;;14.20;87.80;;;;;;5035723;28;20041;-76
2022/06/03 05:07:30;;;;;;;0.90;0.70;;;14.20;86.30;;;;;;5033582;28;19909;-75
2022/06/03 05:10:44;;;;;;;0.73;0.70;;;14.30;86.20;;;;;;5033212;28;20402;-74
2022/06/03 05:13:28;;;;;;;1.75;0.88;;;14.40;86.00;;;;;;5034571;28;20061;-74
2022/06/03 05:16:31;;;;;;;1.13;0.88;;;14.80;89.30;;;;;;5050885;28;20497;-73
2022/06/03 05:18:57;;;;;;;0.55;0.45;;;15.00;83.80;;;;;;5038395;28;20040;-74
2022/06/03 05:21:53;;;;;;;1.25;0.70;;;14.90;82.50;;;;;;5045107;28;20405;-75
2022/06/03 05:24:38;;;;;;;6.43;0.60;;;14.90;82.40;;;;;;5050506;28;20044;-75
2022/06/03 05:27:16;;;;;;;1.15;0.60;;;15.30;81.10;;;;;;5049392;28;20044;-74
2022/06/03 05:29:42;;;;;;;0.98;0.70;;;15.70;79.40;;;;;;5047380;28;20091;-75
2022/06/03 05:32:43;;;;;;;1.02;0.88;;;16.00;78.80;;;;;;5034354;28;20033;-74
2022/06/03 05:35:56;;;;;;;1.33;0.68;;;16.60;76.00;;;;;;5052571;28;20471;-73
2022/06/03 05:38:51;;;;;;;0.85;0.80;;;17.40;76.00;;;;;;5053156;28;20041;-76
2022/06/03 05:44:41;;;;;;;0.75;0.60;;;18.50;67.70;;;;;;5040086;28;20041;-76
2022/06/03 05:47:15;;;;;;;0.77;0.70;;;19.20;64.70;;;;;;5038427;28;20029;-73
2022/06/03 05:49:47;;;;;;;0.55;0.55;;;19.40;63.90;;;;;;5048375;28;20065;-76
2022/06/03 05:52:19;;;;;;;1.55;0.90;;;20.10;61.80;;;;;;5036510;28;20040;-76
2022/06/03 05:55:01;;;;;;;0.80;0.70;;;20.40;60.90;;;;;;5032816;28;20057;-73
2022/06/03 05:57:38;;;;;;;5.45;0.70;;;20.80;61.00;;;;;;5033247;28;20030;-73
2022/06/03 06:00:33;;;;;;;0.52;0.52;;;21.60;58.40;;;;;;5032671;28;20372;-73
2022/06/03 06:03:18;;;;;;;0.90;0.65;;;21.60;57.40;;;;;;5036255;28;20029;-75
2022/06/03 06:05:58;;;;;;;2.15;0.70;;;22.40;56.00;;;;;;5034710;28;20040;-77
2022/06/03 06:08:32;;;;;;;5.93;1.35;;;21.70;56.10;;;;;;5032760;28;20041;-75
2022/06/03 06:11:27;;;;;;;1.55;1.23;;;21.80;57.40;;;;;;5033271;28;20029;-75
2022/06/03 06:14:04;;;;;;;1.33;0.63;;;22.40;53.90;;;;;;5021497;28;20059;-74
2022/06/03 06:16:35;;;;;;;0.70;0.55;;;22.00;55.20;;;;;;5033093;28;20048;-74
2022/06/03 06:19:15;;;;;;;0.80;0.68;;;20.90;56.50;;;;;;5033270;28;20033;-74
2022/06/03 06:22:14;;;;;;;1.00;0.75;;;20.70;57.20;;;;;;5033242;28;20030;-73
2022/06/03 06:24:54;;;;;;;3.20;0.80;;;20.90;58.60;;;;;;5032259;28;20556;-75
2022/06/03 06:27:51;;;;;;;3.10;0.70;;;21.20;55.40;;;;;;5041593;28;20029;-72
2022/06/03 06:30:27;;;;;;;0.90;0.63;;;21.20;57.80;;;;;;5052234;28;20064;-73
2022/06/03 06:33:22;;;;;;;1.00;0.68;;;21.80;55.50;;;;;;5033162;28;20038;-76
2022/06/03 06:36:32;;;;;;;0.47;0.47;;;21.80;54.50;;;;;;5022614;28;20048;-74
2022/06/03 06:39:08;;;;;;;4.00;0.93;;;22.50;53.80;;;;;;5031593;28;20053;-74
2022/06/03 06:41:49;;;;;;;1.60;0.90;;;22.30;53.50;;;;;;5032550;28;20463;-75
2022/06/03 06:44:39;;;;;;;2.13;0.80;;;23.00;53.00;;;;;;5032364;28;20529;-73
2022/06/03 06:47:14;;;;;;;1.58;0.70;;;21.80;54.40;;;;;;5032583;28;20470;-74
2022/06/03 06:50:02;;;;;;;0.70;0.60;;;22.20;55.00;;;;;;5032549;28;20052;-76
2022/06/03 06:52:57;;;;;;;1.65;0.95;;;22.90;52.70;;;;;;5046882;28;20490;-76
2022/06/03 06:55:47;;;;;;;1.17;0.77;;;22.80;54.80;;;;;;5045003;28;20254;-76
2022/06/03 06:59:02;;;;;;;0.82;0.80;;;23.10;52.60;;;;;;5038115;28;20037;-76
2022/06/03 07:01:41;;;;;;;1.42;0.70;;;22.60;53.10;;;;;;5039411;28;20116;-73
2022/06/03 07:04:16;;;;;;;1.35;0.82;;;22.20;53.40;;;;;;5038656;28;20492;-74
2022/06/03 07:06:57;;;;;;;0.60;0.50;;;22.40;53.90;;;;;;5047771;28;20056;-74
2022/06/03 07:09:38;;;;;;;2.60;0.77;;;22.00;53.50;;;;;;5046253;28;20037;-76
2022/06/03 07:12:10;;;;;;;0.82;0.68;;;21.80;54.00;;;;;;5040311;28;20373;-77
2022/06/03 07:15:00;;;;;;;3.28;1.20;;;21.80;54.10;;;;;;5047225;28;20044;-76
2022/06/03 07:21:15;;;;;;;1.02;0.77;;;21.80;54.30;;;;;;5032558;28;20040;-75
2022/06/03 07:23:51;;;;;;;0.80;0.60;;;22.40;52.90;;;;;;5044996;28;20025;-76
2022/06/03 07:26:40;;;;;;;0.93;0.65;;;22.70;52.80;;;;;;5048138;28;20470;-75
2022/06/03 07:29:19;;;;;;;0.73;0.65;;;23.60;52.40;;;;;;5032096;28;20038;-76
2022/06/03 07:31:58;;;;;;;0.95;0.68;;;23.50;50.90;;;;;;5033458;28;20034;-76
2022/06/03 07:34:43;;;;;;;2.83;1.13;;;24.00;49.70;;;;;;5032558;28;20037;-75
2022/06/03 07:37:30;;;;;;;4.80;0.65;;;23.40;50.70;;;;;;5048570;28;20390;-74
2022/06/03 07:40:14;;;;;;;1.13;0.82;;;24.50;48.00;;;;;;5041552;28;20376;-74
2022/06/03 07:43:00;;;;;;;1.00;0.85;;;24.90;48.80;;;;;;5042268;28;20041;-74
2022/06/03 07:45:44;;;;;;;1.95;1.15;;;23.60;50.40;;;;;;5055590;28;20036;-73
2022/06/03 07:48:17;;;;;;;2.40;0.73;;;23.70;50.70;;;;;;5040828;28;20040;-74
2022/06/03 07:51:11;;;;;;;0.82;0.70;;;24.10;50.70;;;;;;5037151;28;20316;-74
2022/06/03 07:53:45;;;;;;;1.05;0.82;;;24.30;49.30;;;;;;5036049;28;20037;-75
2022/06/03 07:56:19;;;;;;;0.93;0.77;;;24.50;49.00;;;;;;5052336;28;20470;-75
2022/06/03 07:58:48;;;;;;;1.00;0.70;;;25.50;48.70;;;;;;5035754;28;20048;-76
2022/06/03 08:01:21;;;;;;;1.50;1.02;;;25.80;47.60;;;;;;5049040;28;20045;-75
2022/06/03 08:03:48;;;;;;;6.65;1.15;;;26.90;46.90;;;;;;5050925;28;20052;-75
2022/06/03 08:06:14;;;;;;;3.67;1.27;;;25.60;48.20;;;;;;5039304;28;20045;-74
2022/06/03 08:11:32;;;;;;;1.00;0.77;;;24.70;48.90;;;;;;5044168;28;20056;-76
2022/06/03 08:14:00;;;;;;;3.47;0.77;;;24.50;49.40;;;;;;5045862;28;20029;-76
2022/06/03 08:16:34;;;;;;;0.65;0.65;;;24.70;49.70;;;;;;5053069;28;20474;-75
2022/06/03 08:19:26;;;;;;;1.05;0.80;;;24.90;48.70;;;;;;5037365;28;20390;-72
2022/06/03 08:21:58;;;;;;;0.80;0.73;;;24.80;48.50;;;;;;5035368;28;20045;-74
2022/06/03 08:24:35;;;;;;;2.55;0.80;;;25.20;49.50;;;;;;5054915;28;20040;-73
2022/06/03 08:27:10;;;;;;;1.00;0.60;;;25.50;49.10;;;;;;5036032;28;20036;-72
2022/06/03 08:29:41;;;;;;;1.02;0.55;;;25.90;48.00;;;;;;5045564;28;20052;-73
2022/06/03 08:32:16;;;;;;;2.75;1.00;;;25.70;48.70;;;;;;5049659;28;20034;-72
2022/06/03 08:34:51;;;;;;;1.77;1.00;;;25.10;49.10;;;;;;5051160;28;20052;-72
2022/06/03 08:37:27;;;;;;;4.40;0.80;;;25.00;49.50;;;;;;5048044;28;20036;-73
2022/06/03 08:39:58;;;;;;;1.40;1.08;;;25.70;48.90;;;;;;5046908;28;20132;-73
2022/06/03 08:42:36;;;;;;;1.40;0.80;;;25.20;49.00;;;;;;5034062;28;20045;-73
2022/06/03 08:45:15;;;;;;;3.60;0.93;;;24.80;49.40;;;;;;5044654;28;20375;-73
2022/06/03 08:47:56;;;;;;;1.00;0.90;;;24.10;50.10;;;;;;5042496;28;20033;-74
2022/06/03 08:50:32;;;;;;;4.07;1.20;;;23.60;51.10;;;;;;5047830;28;20041;-73
2022/06/03 08:53:07;;;;;;;0.95;0.80;;;24.30;51.10;;;;;;5044315;28;20044;-72
2022/06/03 08:55:40;;;;;;;3.05;0.90;;;25.30;49.50;;;;;;5053694;28;20037;-72
2022/06/03 08:58:17;;;;;;;1.13;0.70;;;25.20;50.40;;;;;;5041296;28;20043;-73
2022/06/03 09:01:11;;;;;;;0.60;0.60;;;26.00;48.60;;;;;;5034412;28;20060;-73
2022/06/03 09:04:09;;;;;;;2.13;1.10;;;26.10;48.70;;;;;;5034094;28;20044;-73
2022/06/03 09:07:42;;;;;;;1.63;0.90;;;25.90;48.90;;;;;;5034535;28;20467;-73
2022/06/03 09:10:30;;;;;;;2.30;1.00;;;26.10;48.20;;;;;;4998246;28;20053;-72
2022/06/03 09:13:09;;;;;;;0.93;0.63;;;25.40;49.10;;;;;;5000482;28;20062;-73
2022/06/03 09:15:43;;;;;;;0.90;0.70;;;24.70;49.90;;;;;;5010757;28;20388;-73
2022/06/03 09:18:24;;;;;;;0.80;0.80;;;24.90;50.10;;;;;;5011044;28;20069;-74
2022/06/03 09:21:04;;;;;;;0.68;0.68;;;25.00;50.00;;;;;;4999845;28;20045;-73
2022/06/03 09:23:42;;;;;;;1.40;0.82;;;25.50;49.40;;;;;;4962044;28;20053;-71
2022/06/03 09:26:32;;;;;;;1.42;0.98;;;25.50;50.40;;;;;;4993050;28;20035;-73
2022/06/03 09:29:02;;;;;;;3.75;1.30;;;25.20;49.70;;;;;;5010209;28;20069;-74
2022/06/03 09:31:29;;;;;;;1.67;0.85;;;25.30;49.70;;;;;;5000328;28;20039;-72
2022/06/03 09:33:57;;;;;;;1.38;1.05;;;26.40;51.00;;;;;;4992478;28;20043;-75
2022/06/03 09:36:25;;;;;;;1.40;1.00;;;26.70;48.60;;;;;;4991924;28;20038;-73
2022/06/03 09:38:56;;;;;;;2.05;1.23;;;26.10;49.00;;;;;;4992019;28;20049;-72
2022/06/03 09:41:30;;;;;;;1.80;1.10;;;26.00;49.50;;;;;;5037161;28;20041;-72
2022/06/03 09:43:58;;;;;;;2.00;1.23;;;26.00;49.90;;;;;;5034040;28;20037;-71
2022/06/03 09:46:29;;;;;;;1.45;1.15;;;26.40;49.00;;;;;;5031918;28;20048;-73
2022/06/03 09:48:56;;;;;;;0.98;0.80;;;26.40;49.90;;;;;;5033167;28;20042;-72
2022/06/03 09:54:11;;;;;;;1.33;0.88;;;26.10;49.60;;;;;;5037282;28;20427;-72
2022/06/03 09:56:38;;;;;;;0.98;0.88;;;26.20;49.40;;;;;;5046292;28;20040;-72
2022/06/03 09:59:05;;;;;;;1.73;1.00;;;26.20;49.90;;;;;;5033210;28;20045;-73
2022/06/03 10:01:31;;;;;;;0.95;0.90;;;26.60;49.70;;;;;;5032570;28;20064;-72
2022/06/03 10:04:01;;;;;;;1.52;0.80;;;26.50;49.10;;;;;;5033417;28;20038;-73
2022/06/03 10:06:43;;;;;;;1.20;1.08;;;26.30;49.40;;;;;;5032649;28;20034;-72
2022/06/03 10:17:48;;;;;;;1.70;1.05;;;25.50;50.60;;;;;;5035874;28;20044;-75
2022/06/03 10:20:15;;;;;;;1.25;0.88;;;25.70;50.80;;;;;;5050711;28;20040;-75
2022/06/03 10:22:44;;;;;;;1.40;0.98;;;26.20;50.70;;;;;;5032911;28;20391;-75
2022/06/03 10:25:12;;;;;;;1.92;1.13;;;26.50;50.10;;;;;;5031224;28;20497;-76
2022/06/03 10:27:38;;;;;;;1.77;1.10;;;26.50;49.80;;;;;;5031664;28;20037;-74
2022/06/03 10:30:05;;;;;;;1.33;0.80;;;26.50;50.30;;;;;;5033240;28;20048;-74
2022/06/03 10:32:34;;;;;;;0.98;0.70;;;26.30;50.40;;;;;;5031864;28;20041;-74
2022/06/03 10:35:17;;;;;;;1.08;0.85;;;26.20;51.40;;;;;;5032328;28;20498;-74
2022/06/03 10:37:50;;;;;;;2.53;1.00;;;26.30;51.50;;;;;;5041032;28;20048;-75
2022/06/03 10:40:17;;;;;;;1.33;1.02;;;26.50;50.50;;;;;;5041110;28;20044;-75
2022/06/03 10:42:49;;;;;;;1.85;1.15;;;26.50;50.30;;;;;;5048652;28;20033;-75
2022/06/03 10:45:15;;;;;;;1.00;0.80;;;26.50;50.40;;;;;;5032022;28;20030;-73
2022/06/03 10:47:47;;;;;;;3.05;1.23;;;26.40;50.80;;;;;;5032720;28;20052;-73
2022/06/03 10:50:33;;;;;;;0.80;0.80;;;26.00;51.30;;;;;;5040793;28;20052;-73
2022/06/03 11:01:44;;;;;;;1.00;0.90;;;26.50;50.60;;;;;;5034300;28;20030;-72
2022/06/03 11:04:24;;;;;;;0.95;0.95;;;26.20;51.50;;;;;;5031540;28;20034;-73
2022/06/03 11:06:51;;;;;;;1.08;0.98;;;26.20;50.30;;;;;;5032832;28;20035;-73
2022/06/03 11:09:19;;;;;;;1.35;0.93;;;26.30;51.10;;;;;;5038391;28;20060;-74
2022/06/03 11:11:58;;;;;;;0.95;0.85;;;26.60;50.70;;;;;;5054203;28;20049;-72
2022/06/03 11:14:24;;;;;;;0.85;0.77;;;26.50;50.50;;;;;;5051004;28;20059;-71
2022/06/03 11:16:58;;;;;;;2.60;1.00;;;26.20;51.00;;;;;;5037339;28;20050;-72
2022/06/03 11:19:28;;;;;;;1.08;0.80;;;26.10;50.70;;;;;;5036399;28;20048;-74
2022/06/03 11:22:17;;;;;;;1.70;1.40;;;26.20;50.80;;;;;;5036688;28;20041;-74
2022/06/03 11:25:21;;;;;;;1.58;1.15;;;26.40;51.50;;;;;;5036514;28;20056;-72
2022/06/03 11:28:18;;;;;;;2.65;1.55;;;26.40;50.50;;;;;;5039273;28;20048;-73
2022/06/03 11:30:47;;;;;;;3.78;1.17;;;26.40;50.80;;;;;;5035905;28;20044;-73
2022/06/03 11:33:24;;;;;;;1.13;0.80;;;26.60;51.20;;;;;;5037186;28;20033;-73
2022/06/03 11:35:52;;;;;;;1.17;1.00;;;26.50;50.80;;;;;;5044902;28;20378;-73
2022/06/03 11:38:29;;;;;;;1.20;1.05;;;26.40;50.80;;;;;;5035334;28;20029;-73
2022/06/03 11:41:01;;;;;;;1.90;1.02;;;26.50;51.50;;;;;;5039706;28;20028;-74
2022/06/03 11:43:34;;;;;;;1.35;1.00;;;26.70;52.10;;;;;;5049350;28;20033;-73
2022/06/03 11:46:07;;;;;;;1.67;1.27;;;27.00;51.10;;;;;;5034756;28;20044;-73
2022/06/03 11:48:41;;;;;;;1.38;0.85;;;27.00;51.30;;;;;;5050009;28;20708;-73
2022/06/03 11:51:09;;;;;;;1.25;1.15;;;27.10;50.40;;;;;;5039972;28;20382;-73
2022/06/03 11:53:39;;;;;;;1.48;1.20;;;26.50;51.00;;;;;;5035254;28;20068;-74
2022/06/03 11:56:10;;;;;;;2.05;1.05;;;26.70;52.60;;;;;;5035570;28;20033;-74
2022/06/03 11:58:58;;;;;;;4.75;1.85;;;26.80;51.10;;;;;;5035387;28;20030;-73
2022/06/03 12:01:57;;;;;;;1.10;0.85;;;27.00;50.60;;;;;;5046767;28;20072;-73
2022/06/03 12:04:50;;;;;;;1.37;1.00;;;27.10;50.60;;;;;;5044791;28;20050;-74
2022/06/03 12:07:23;;;;;;;2.40;1.48;;;27.30;50.50;;;;;;5040924;28;20025;-73
2022/06/03 12:10:06;;;;;;;1.15;1.00;;;27.50;51.60;;;;;;5042591;28;20044;-73
2022/06/03 12:15:26;;;;;;;5.35;1.42;;;27.70;50.50;;;;;;5050364;28;20029;-73
2022/06/03 12:17:52;;;;;;;1.50;1.00;;;27.50;50.50;;;;;;5038344;28;20034;-73
2022/06/03 12:20:31;;;;;;;1.33;0.93;;;27.50;50.70;;;;;;5034155;28;20041;-74
2022/06/03 12:23:17;;;;;;;1.33;1.23;;;27.50;51.10;;;;;;5035925;28;20036;-74
2022/06/03 12:25:53;;;;;;;1.40;1.20;;;27.40;51.20;;;;;;5042303;28;20057;-73
2022/06/03 12:28:29;;;;;;;1.77;1.35;;;27.30;51.70;;;;;;5035589;28;20475;-73
2022/06/03 12:31:37;;;;;;;2.22;1.13;;;26.90;51.40;;;;;;5049138;28;20052;-72
2022/06/03 12:34:13;;;;;;;1.10;0.95;;;26.70;51.90;;;;;;5037070;28;20029;-73
2022/06/03 12:36:51;;;;;;;2.00;1.45;;;26.60;52.50;;;;;;5038962;28;20512;-73
2022/06/03 12:39:30;;;;;;;2.55;1.48;;;26.70;52.40;;;;;;5047356;28;20029;-73
2022/06/03 12:42:01;;;;;;;1.30;0.82;;;26.80;52.10;;;;;;5035643;28;20034;-73
2022/06/03 12:44:40;;;;;;;1.45;1.33;;;26.80;52.70;;;;;;5034680;28;20064;-73
2022/06/03 12:47:18;;;;;;;1.88;1.23;;;26.70;52.40;;;;;;5035466;28;20033;-73
2022/06/03 12:49:44;;;;;;;5.55;1.23;;;26.40;52.60;;;;;;5034754;28;20052;-72
2022/06/03 12:52:35;;;;;;;1.30;1.20;;;26.40;53.60;;;;;;5034903;28;20032;-72
2022/06/03 12:55:27;;;;;;;1.33;1.20;;;26.40;53.00;;;;;;5033789;28;20041;-72
2022/06/03 12:57:55;;;;;;;1.33;1.00;;;26.20;53.80;;;;;;5035267;28;20032;-73
2022/06/03 13:00:25;;;;;;;5.38;1.33;;;26.20;53.30;;;;;;5035240;28;20037;-73
2022/06/03 13:02:58;;;;;;;1.90;1.10;;;26.10;54.30;;;;;;5035502;28;20041;-72
2022/06/03 13:05:27;;;;;;;2.00;1.25;;;26.00;54.90;;;;;;5037109;28;20044;-73
2022/06/03 13:07:59;;;;;;;1.05;0.90;;;26.00;54.40;;;;;;5035399;28;20451;-75
2022/06/03 13:10:28;;;;;;;4.38;1.75;;;25.90;54.80;;;;;;5034069;28;20117;-75
2022/06/03 13:13:15;;;;;;;1.58;1.20;;;25.80;55.40;;;;;;5034073;28;20053;-73
2022/06/03 13:15:44;;;;;;;3.15;1.92;;;25.60;55.40;;;;;;5034224;28;20040;-75
2022/06/03 13:18:13;;;;;;;1.45;1.27;;;25.50;55.60;;;;;;5034478;28;20036;-72
2022/06/03 13:20:43;;;;;;;1.65;0.88;;;25.40;55.20;;;;;;5034311;28;20038;-74
2022/06/03 13:23:32;;;;;;;1.42;1.02;;;25.30;56.70;;;;;;5034706;28;20395;-73
2022/06/03 13:26:27;;;;;;;2.63;1.40;;;25.30;56.60;;;;;;5040492;28;20048;-72
2022/06/03 13:28:58;;;;;;;2.97;1.60;;;25.30;56.50;;;;;;5034030;28;20033;-72
2022/06/03 13:31:26;;;;;;;1.45;1.00;;;25.20;56.00;;;;;;5033098;28;20049;-73
2022/06/03 13:36:45;;;;;;;2.33;1.42;;;25.10;57.90;;;;;;5033213;28;20044;-73
2022/06/03 13:39:34;;;;;;;1.52;1.42;;;24.90;59.30;;;;;;5042677;28;20037;-72
2022/06/03 13:44:55;;;;;;;3.03;2.67;;;24.60;60.50;;;;;;5046203;28;20394;-73
2022/06/03 13:47:44;;;;;;;2.92;2.45;;;24.50;59.50;;;;;;5033362;28;20501;-73
2022/06/03 13:50:14;;;;;;;2.30;1.90;;;24.40;60.80;;;;;;5030128;28;20054;-72
2022/06/03 13:52:46;;;;;;;1.75;1.45;;;24.40;60.00;;;;;;5033547;28;20044;-72
2022/06/03 13:55:28;;;;;;;2.35;2.15;;;24.30;60.20;;;;;;5032979;28;20037;-75
2022/06/03 13:58:03;;;;;;;3.15;1.83;;;24.40;59.90;;;;;;5033647;28;20486;-72
2022/06/03 14:00:40;;;;;;;1.65;1.45;;;24.40;61.60;;;;;;5033148;28;20037;-72
2022/06/03 14:03:12;;;;;;;1.83;1.33;;;24.30;63.20;;;;;;5033960;28;20052;-72
2022/06/03 14:05:56;;;;;;;5.40;1.80;;;24.10;63.00;;;;;;5049045;28;20044;-73
2022/06/03 14:08:35;;;;;;;1.83;1.42;;;24.10;65.80;;;;;;5042239;28;20529;-73
2022/06/03 14:11:10;;;;;;;3.87;2.20;;;24.00;67.10;;;;;;5042199;28;20045;-72
2022/06/03 14:13:57;;;;;;;1.58;1.30;;;24.00;71.10;;;;;;5034908;28;20072;-73
2022/06/03 14:17:01;;;;;;;3.63;2.00;;;24.00;69.00;;;;;;5048236;28;20037;-74
2022/06/03 14:19:51;;;;;;;2.45;1.83;;;24.00;71.80;;;;;;5032535;28;20048;-73
2022/06/03 14:22:39;;;;;;;3.10;2.30;;;23.80;74.30;;;;;;5032461;28;20498;-74
2022/06/03 14:25:15;;;;;;;2.92;1.95;;;23.70;74.70;;;;;;5047112;28;20044;-73
2022/06/03 14:28:01;;;;;;;2.75;2.10;;;23.50;75.50;;;;;;5036282;28;20052;-74
2022/06/03 14:30:42;;;;;;;2.38;1.75;;;23.40;76.30;;;;;;5039675;28;20120;-73
2022/06/03 14:33:10;;;;;;;1.90;1.75;;;23.30;76.10;;;;;;5032163;28;20050;-74
2022/06/03 14:35:43;;;;;;;2.33;1.63;;;23.20;75.00;;;;;;5033286;28;20485;-74
2022/06/03 14:38:38;;;;;;;2.10;1.45;;;23.20;75.50;;;;;;5032902;28;20648;-74
2022/06/03 14:41:09;;;;;;;3.17;2.05;;;23.10;76.60;;;;;;5031263;28;20033;-73
2022/06/03 14:43:36;;;;;;;2.00;1.52;;;23.10;78.90;;;;;;5032910;28;20041;-74